Time;durP1;ratioP1;P1;durP2;ratioP2;P2;SDS_P1;SDS_P2;PMS_P1;PMS_P2;Temp;Humidity;BMP_temperature;BMP_pressure;BME280_temperature;BME280_humidity;BME280_pressure;Samples;Min_cycle;Max_cycle;Signal;HPM_P1;HPM_P2
2022/05/28 00:00:39;;;;;;;4.82;2.92;;;;;;;12.34;100.00;95790.59;5016815;28;20056;-77
2022/05/28 00:03:05;;;;;;;4.93;2.80;;;;;;;12.29;100.00;95795.88;5023114;28;20095;-77
2022/05/28 00:05:32;;;;;;;4.93;2.70;;;;;;;12.26;100.00;95789.28;5036119;28;20037;-77
2022/05/28 00:07:57;;;;;;;6.05;2.72;;;;;;;12.25;100.00;95792.22;5028684;28;20289;-77
2022/05/28 00:10:23;;;;;;;4.38;2.70;;;;;;;12.21;100.00;95791.97;5029016;28;20037;-77
2022/05/28 00:12:49;;;;;;;5.85;3.33;;;;;;;12.15;100.00;95792.28;5035689;28;20049;-77
2022/05/28 00:15:16;;;;;;;5.05;2.85;;;;;;;12.14;100.00;95786.22;5035906;28;20044;-78
2022/05/28 00:17:41;;;;;;;5.03;3.00;;;;;;;12.01;100.00;95787.59;5032465;28;20037;-78
2022/05/28 00:20:08;;;;;;;4.85;2.95;;;;;;;12.00;100.00;95791.28;5036182;28;20096;-76
2022/05/28 00:22:41;;;;;;;7.28;2.63;;;;;;;12.05;100.00;95793.09;5035836;28;20045;-75
2022/05/28 00:25:10;;;;;;;5.70;2.93;;;;;;;11.94;100.00;95787.88;5032069;28;20110;-77
2022/05/28 00:27:36;;;;;;;6.53;3.08;;;;;;;11.90;100.00;95776.25;5033459;28;20044;-77
2022/05/28 00:30:02;;;;;;;4.05;2.63;;;;;;;11.86;100.00;95774.44;5034067;28;20038;-77
2022/05/28 00:32:27;;;;;;;5.97;3.05;;;;;;;11.82;100.00;95774.19;5031970;28;20052;-77
2022/05/28 00:34:53;;;;;;;5.25;2.88;;;;;;;11.81;100.00;95777.91;5032397;28;20042;-77
2022/05/28 00:37:18;;;;;;;5.35;2.70;;;;;;;11.77;100.00;95776.84;5032849;28;20041;-77
2022/05/28 00:39:44;;;;;;;5.15;3.15;;;;;;;11.72;100.00;95776.84;5032570;28;20045;-77
2022/05/28 00:42:10;;;;;;;6.00;2.92;;;;;;;11.64;100.00;95775.59;5015392;28;20042;-78
2022/05/28 00:44:35;;;;;;;5.25;2.70;;;;;;;11.58;100.00;95774.81;5030487;28;20041;-77
2022/05/28 00:47:02;;;;;;;5.63;3.08;;;;;;;11.58;100.00;95774.81;5030602;28;20120;-77
2022/05/28 00:49:32;;;;;;;6.05;3.00;;;;;;;11.52;100.00;95770.63;5027501;28;20045;-79
2022/05/28 00:52:00;;;;;;;9.02;3.05;;;;;;;11.48;100.00;95760.84;5027437;28;20071;-77
2022/05/28 00:54:38;;;;;;;6.07;2.88;;;;;;;11.45;100.00;95764.84;5031927;28;20046;-78
2022/05/28 00:57:05;;;;;;;5.93;3.15;;;;;;;11.33;100.00;95766.97;5024142;28;20042;-77
2022/05/28 00:59:31;;;;;;;5.05;2.92;;;;;;;11.33;100.00;95772.25;5030941;28;20519;-77
2022/05/28 01:02:04;;;;;;;6.57;3.08;;;;;;;11.26;100.00;95768.03;5028474;28;20080;-77
2022/05/28 01:04:42;;;;;;;6.60;3.47;;;;;;;11.26;100.00;95752.25;5031404;28;20050;-78
2022/05/28 01:07:25;;;;;;;4.88;3.20;;;;;;;11.23;100.00;95768.59;5020989;28;20041;-77
2022/05/28 01:10:01;;;;;;;4.80;2.92;;;;;;;11.29;100.00;95760.66;5024733;28;20380;-78
2022/05/28 01:13:03;;;;;;;5.75;2.90;;;;;;;11.30;100.00;95756.97;5030914;28;20041;-77
2022/05/28 01:15:33;;;;;;;5.30;2.75;;;;;;;11.25;100.00;95749.88;5029237;28;20042;-78
2022/05/28 01:18:11;;;;;;;5.25;3.10;;;;;;;11.27;100.00;95753.81;5029781;28;20033;-76
2022/05/28 01:20:52;;;;;;;7.03;2.95;;;;;;;11.30;100.00;95746.44;5030181;28;20064;-76
2022/05/28 01:23:28;;;;;;;7.18;3.35;;;;;;;11.32;100.00;95749.56;5019485;28;20042;-77
2022/05/28 01:26:31;;;;;;;5.80;3.10;;;;;;;11.38;100.00;95743.25;5014054;28;20064;-77
2022/05/28 01:29:09;;;;;;;4.80;3.00;;;;;;;11.46;100.00;95742.69;5032424;28;20652;-77
2022/05/28 01:31:37;;;;;;;6.20;2.90;;;;;;;11.43;100.00;95730.84;5024512;28;20041;-77
2022/05/28 01:34:05;;;;;;;5.82;2.85;;;;;;;11.52;100.00;95743.47;5033121;28;20057;-78
2022/05/28 01:36:33;;;;;;;6.07;2.95;;;;;;;11.46;100.00;95740.03;5032988;28;20042;-77
2022/05/28 01:39:00;;;;;;;5.25;3.13;;;;;;;11.47;100.00;95741.63;5031433;28;20041;-77
2022/05/28 01:41:29;;;;;;;4.57;2.80;;;;;;;11.55;100.00;95743.72;5030142;28;20050;-77
2022/05/28 01:43:56;;;;;;;5.38;2.88;;;;;;;11.56;100.00;95740.00;5027939;28;20049;-78
2022/05/28 01:46:23;;;;;;;6.75;3.15;;;;;;;11.59;100.00;95742.13;5032215;28;20054;-77
2022/05/28 01:48:52;;;;;;;7.07;3.20;;;;;;;11.61;100.00;95737.38;5027546;28;20115;-77
2022/05/28 01:51:18;;;;;;;5.38;2.90;;;;;;;11.66;100.00;95739.19;5029113;28;20131;-78
2022/05/28 01:56:30;;;;;;;10.90;3.20;;;;;;;11.66;100.00;95733.13;5036594;28;20585;-78
2022/05/28 01:58:56;;;;;;;7.35;3.30;;;;;;;11.77;100.00;95739.94;5028894;28;20049;-77
2022/05/28 02:01:22;;;;;;;5.28;3.00;;;;;;;11.74;100.00;95741.25;5024203;28;20038;-77
2022/05/28 02:03:51;;;;;;;7.05;3.40;;;;;;;11.88;100.00;95741.47;5031945;28;20077;-76
2022/05/28 02:06:17;;;;;;;6.97;3.30;;;;;;;11.80;100.00;95739.41;5040544;28;20041;-78
2022/05/28 02:08:46;;;;;;;5.25;3.03;;;;;;;11.84;100.00;95729.88;5035428;28;20073;-77
2022/05/28 02:11:15;;;;;;;9.75;3.58;;;;;;;11.89;100.00;95736.97;5031221;28;20042;-78
2022/05/28 02:14:08;;;;;;;7.57;3.35;;;;;;;11.85;100.00;95731.47;5041517;28;20041;-78
2022/05/28 02:16:53;;;;;;;9.23;3.33;;;;;;;11.82;100.00;95726.72;5040451;28;20091;-78
2022/05/28 02:19:31;;;;;;;6.22;3.72;;;;;;;11.84;100.00;95729.09;5036427;28;20487;-79
2022/05/28 02:22:05;;;;;;;7.47;3.50;;;;;;;11.78;100.00;95720.44;5038839;28;20046;-78
2022/05/28 02:24:41;;;;;;;;;;;;;;;11.86;100.00;95722.47;5038345;28;20045;-79
2022/05/28 02:27:17;;;;;;;7.00;3.78;;;;;;;11.81;100.00;95722.53;5037837;28;19921;-79
2022/05/28 02:29:43;;;;;;;8.02;3.55;;;;;;;11.73;100.00;95712.53;5023208;28;20045;-78
2022/05/28 02:32:21;;;;;;;8.07;4.25;;;;;;;11.76;100.00;95722.53;5034696;28;20052;-78
2022/05/28 02:34:47;;;;;;;6.93;3.90;;;;;;;11.74;100.00;95708.84;5035995;28;20045;-76
2022/05/28 02:37:14;;;;;;;9.02;3.90;;;;;;;11.60;100.00;95706.78;5037263;28;20071;-78
2022/05/28 02:39:39;;;;;;;6.57;4.15;;;;;;;11.64;100.00;95708.88;5034065;28;20042;-76
2022/05/28 02:42:06;;;;;;;8.30;4.43;;;;;;;11.69;100.00;95708.88;5030486;28;20072;-74
2022/05/28 02:44:32;;;;;;;7.13;3.58;;;;;;;11.62;100.00;95711.78;5026617;28;20046;-76
2022/05/28 02:46:57;;;;;;;7.88;3.83;;;;;;;11.57;100.00;95715.25;5031515;28;20046;-76
2022/05/28 02:49:23;;;;;;;10.38;4.50;;;;;;;11.63;100.00;95707.31;5024770;28;20045;-74
2022/05/28 02:51:49;;;;;;;6.80;4.45;;;;;;;11.60;100.00;95704.16;5030989;28;20108;-76
2022/05/28 02:54:15;;;;;;;9.02;4.35;;;;;;;11.66;100.00;95722.59;5030131;28;20048;-76
2022/05/28 02:56:40;;;;;;;7.78;4.15;;;;;;;11.59;100.00;95717.59;5027844;28;20041;-76
2022/05/28 02:59:06;;;;;;;10.27;4.40;;;;;;;11.59;100.00;95707.06;5023628;28;20041;-77
2022/05/28 03:01:33;;;;;;;12.18;4.65;;;;;;;11.59;100.00;95702.59;5037176;28;20033;-77
2022/05/28 03:03:59;;;;;;;9.77;4.30;;;;;;;11.65;100.00;95708.63;5031083;28;20048;-77
2022/05/28 03:06:26;;;;;;;8.90;4.38;;;;;;;11.63;100.00;95712.59;5030046;28;20049;-77
2022/05/28 03:08:52;;;;;;;8.07;4.25;;;;;;;11.63;100.00;95708.09;5029483;28;20048;-76
2022/05/28 03:11:18;;;;;;;11.15;4.30;;;;;;;11.64;100.00;95708.88;5022685;28;20046;-75
2022/05/28 03:13:43;;;;;;;10.00;4.50;;;;;;;11.69;100.00;95716.78;5033387;28;20067;-76
2022/05/28 03:16:10;;;;;;;9.70;4.55;;;;;;;11.66;100.00;95719.94;5031766;28;20046;-76
2022/05/28 03:18:36;;;;;;;8.95;4.47;;;;;;;11.66;100.00;95717.31;5033095;28;20393;-77
2022/05/28 03:21:03;;;;;;;10.38;5.38;;;;;;;11.61;100.00;95711.00;5030712;28;20034;-75
2022/05/28 03:23:28;;;;;;;12.02;5.07;;;;;;;11.63;100.00;95717.84;5033185;28;20063;-77
2022/05/28 03:25:54;;;;;;;11.38;5.00;;;;;;;11.59;100.00;95718.41;5032567;28;20049;-76
2022/05/28 03:28:20;;;;;;;12.35;6.10;;;;;;;11.44;100.00;95710.56;5022858;28;20037;-76
2022/05/28 03:30:45;;;;;;;16.52;5.70;;;;;;;11.53;100.00;95719.47;5028393;28;20042;-75
2022/05/28 03:33:11;;;;;;;12.60;5.35;;;;;;;11.54;100.00;95721.06;5025728;28;20042;-75
2022/05/28 03:35:37;;;;;;;10.43;5.43;;;;;;;11.56;100.00;95721.56;5029843;28;20038;-75
2022/05/28 03:38:04;;;;;;;8.68;4.97;;;;;;;11.64;100.00;95719.41;5028743;28;20179;-75
2022/05/28 03:40:30;;;;;;;12.85;5.43;;;;;;;11.53;99.57;95703.66;5028691;28;20033;-75
2022/05/28 03:42:56;;;;;;;12.45;5.28;;;;;;;11.49;100.00;95713.16;5019485;28;20053;-76
2022/05/28 03:45:26;;;;;;;10.07;5.60;;;;;;;11.38;100.00;95722.19;5024789;28;20042;-75
2022/05/28 03:47:52;;;;;;;14.15;5.25;;;;;;;11.30;100.00;95714.81;5022098;28;20046;-75
2022/05/28 03:50:18;;;;;;;9.98;5.35;;;;;;;11.40;99.63;95720.06;5014110;28;20393;-79
2022/05/28 03:52:43;;;;;;;12.57;5.45;;;;;;;11.43;100.00;95724.78;5030174;28;20034;-74
2022/05/28 03:55:10;;;;;;;12.02;5.10;;;;;;;11.50;99.97;95725.28;5028697;28;20042;-74
2022/05/28 03:57:35;;;;;;;11.48;5.18;;;;;;;11.47;98.48;95725.81;5026031;28;20095;-74
2022/05/28 04:00:03;;;;;;;10.90;5.28;;;;;;;11.43;97.05;95730.06;5029855;28;20087;-74
2022/05/28 04:02:29;;;;;;;13.80;5.50;;;;;;;11.27;97.95;95727.44;5028508;28;20045;-75
2022/05/28 04:04:55;;;;;;;12.73;5.53;;;;;;;11.40;97.36;95735.84;5029910;28;20100;-74
2022/05/28 04:07:21;;;;;;;11.73;5.22;;;;;;;11.41;95.53;95742.72;5029339;28;20418;-75
2022/05/28 04:09:46;;;;;;;11.07;5.47;;;;;;;11.37;97.04;95746.94;5026196;28;20419;-75
2022/05/28 04:12:13;;;;;;;11.88;5.70;;;;;;;11.36;97.29;95745.34;5017293;28;20080;-75
2022/05/28 04:14:38;;;;;;;17.40;5.72;;;;;;;11.20;95.35;95737.47;5023682;28;20045;-75
2022/05/28 04:17:05;;;;;;;13.65;5.95;;;;;;;11.32;97.66;95754.84;5027985;28;20095;-75
2022/05/28 04:19:31;;;;;;;16.58;6.03;;;;;;;11.33;96.42;95756.44;5017479;28;20095;-75
2022/05/28 04:21:56;;;;;;;17.73;6.50;;;;;;;11.36;95.30;95761.16;5029561;28;20458;-75
2022/05/28 04:24:22;;;;;;;17.38;5.95;;;;;;;11.36;96.72;95755.91;5029343;28;20060;-75
2022/05/28 04:26:47;;;;;;;16.65;6.05;;;;;;;11.36;93.02;95761.16;5031326;28;20714;-75
2022/05/28 04:29:13;;;;;;;22.20;6.00;;;;;;;11.34;92.51;95747.47;5029677;28;20053;-76
2022/05/28 04:31:39;;;;;;;13.30;5.93;;;;;;;11.32;90.61;95752.22;5028243;28;20579;-75
2022/05/28 04:34:04;;;;;;;15.27;6.50;;;;;;;11.32;90.59;95749.56;5026959;28;20041;-75
2022/05/28 04:36:30;;;;;;;15.80;6.00;;;;;;;11.33;91.48;95748.53;5025074;28;20029;-75
2022/05/28 04:38:56;;;;;;;13.45;5.45;;;;;;;11.44;90.56;95760.63;5025151;28;20045;-76
2022/05/28 04:41:21;;;;;;;17.15;5.82;;;;;;;11.36;87.27;95750.63;5028146;28;20392;-76
2022/05/28 04:43:47;;;;;;;13.80;5.00;;;;;;;11.24;87.84;95764.09;5027396;28;20574;-76
2022/05/28 04:46:12;;;;;;;12.60;5.75;;;;;;;11.36;89.20;95769.06;5029349;28;20435;-76
2022/05/28 04:48:41;;;;;;;16.02;6.10;;;;;;;11.38;87.05;95769.59;5024406;28;20046;-76
2022/05/28 04:51:06;;;;;;;12.40;5.70;;;;;;;11.47;89.41;95761.94;5034561;28;20055;-76
2022/05/28 04:53:32;;;;;;;16.10;5.97;;;;;;;11.39;89.43;95760.63;5028693;28;20041;-75
2022/05/28 04:55:57;;;;;;;16.00;6.53;;;;;;;11.40;89.45;95762.22;5028027;28;20183;-75
2022/05/28 04:58:23;;;;;;;11.32;5.25;;;;;;;11.40;90.16;95756.94;5027959;28;20064;-75
2022/05/28 05:00:49;;;;;;;17.58;6.55;;;;;;;11.50;89.67;95756.91;5026187;28;20083;-76
2022/05/28 05:03:15;;;;;;;11.25;5.95;;;;;;;11.33;91.43;95753.81;5028685;28;20045;-75
2022/05/28 05:05:41;;;;;;;15.35;6.15;;;;;;;11.40;90.62;95756.94;5027256;28;20055;-75
2022/05/28 05:08:07;;;;;;;15.70;6.13;;;;;;;11.27;91.31;95763.56;5021968;28;20091;-75
2022/05/28 05:10:32;;;;;;;13.48;5.47;;;;;;;11.26;91.39;95762.78;5026994;28;20049;-75
2022/05/28 05:13:01;;;;;;;14.98;5.97;;;;;;;11.34;91.14;95758.03;5027430;28;20111;-75
2022/05/28 05:15:27;;;;;;;18.55;6.88;;;;;;;11.29;88.62;95756.16;5028946;28;20052;-76
2022/05/28 05:17:52;;;;;;;13.27;5.80;;;;;;;11.13;88.41;95763.31;5027929;28;20049;-76
2022/05/28 05:20:18;;;;;;;16.67;5.25;;;;;;;11.07;86.32;95764.38;5026891;28;20049;-77
2022/05/28 05:22:44;;;;;;;15.35;5.68;;;;;;;10.99;84.67;95767.53;5031681;28;20457;-77
2022/05/28 05:25:12;;;;;;;20.23;5.40;;;;;;;11.08;83.53;95771.25;5033985;28;20045;-76
2022/05/28 05:27:37;;;;;;;21.90;5.20;;;;;;;11.06;84.05;95768.06;5038263;28;20038;-77
2022/05/28 05:30:05;;;;;;;16.33;5.28;;;;;;;11.05;83.68;95771.78;5032798;28;20657;-77
2022/05/28 05:32:31;;;;;;;24.77;5.10;;;;;;;10.92;82.21;95770.47;5027625;28;20042;-77
2022/05/28 05:34:56;;;;;;;14.15;5.20;;;;;;;10.96;82.86;95773.34;5032052;28;20045;-77
2022/05/28 05:37:22;;;;;;;16.23;5.07;;;;;;;10.99;79.75;95773.63;5034213;28;20048;-77
2022/05/28 05:39:47;;;;;;;12.52;4.65;;;;;;;10.98;79.73;95781.78;5032060;28;20049;-77
2022/05/28 05:42:13;;;;;;;12.02;5.18;;;;;;;11.02;80.49;95783.63;5032691;28;20071;-77
2022/05/28 05:44:39;;;;;;;15.35;4.47;;;;;;;11.01;78.15;95786.53;5033005;28;20071;-76
2022/05/28 05:47:05;;;;;;;18.75;4.80;;;;;;;11.17;78.74;95788.06;5032788;28;20547;-77
2022/05/28 05:49:31;;;;;;;10.68;4.00;;;;;;;11.21;75.90;95786.50;5027027;28;20042;-77
2022/05/28 05:51:57;;;;;;;14.73;4.25;;;;;;;11.17;74.74;95785.44;5031168;28;20065;-77
2022/05/28 05:54:24;;;;;;;21.85;4.35;;;;;;;11.18;71.98;95787.03;5029745;28;20046;-77
2022/05/28 05:56:50;;;;;;;11.40;3.88;;;;;;;11.06;71.35;95789.13;5025454;28;20042;-76
2022/05/28 05:59:16;;;;;;;10.90;3.83;;;;;;;10.84;72.08;95782.31;5030566;28;20416;-76
2022/05/28 06:01:42;;;;;;;16.63;3.83;;;;;;;10.89;72.58;95792.06;5030815;28;20041;-77
2022/05/28 06:04:08;;;;;;;15.90;4.10;;;;;;;11.08;73.24;95787.81;5034172;28;20045;-76
2022/05/28 06:06:34;;;;;;;11.48;4.40;;;;;;;11.18;72.92;95781.75;5033099;28;20053;-77
2022/05/28 06:09:00;;;;;;;8.70;3.75;;;;;;;11.35;75.47;95775.38;5028065;28;20053;-77
2022/05/28 06:11:26;;;;;;;21.20;5.32;;;;;;;11.31;73.73;95784.91;5025554;28;20065;-77
2022/05/28 06:13:52;;;;;;;15.35;4.60;;;;;;;11.22;74.97;95780.16;5030410;28;20042;-76
2022/05/28 06:16:17;;;;;;;12.88;4.40;;;;;;;11.15;75.16;95771.75;5031220;28;20482;-76
2022/05/28 06:18:44;;;;;;;20.00;4.50;;;;;;;11.21;74.40;95775.94;5026416;28;20107;-76
2022/05/28 06:21:10;;;;;;;17.90;4.03;;;;;;;11.38;75.00;95774.88;5029520;28;20056;-77
2022/05/28 06:23:36;;;;;;;15.35;3.88;;;;;;;11.43;72.67;95772.22;5031946;28;20061;-77
2022/05/28 06:26:03;;;;;;;15.23;4.15;;;;;;;11.29;70.26;95781.72;5032193;28;20046;-77
2022/05/28 06:28:29;;;;;;;17.58;3.88;;;;;;;11.23;70.02;95781.75;5027287;28;20038;-77
2022/05/28 06:31:03;;;;;;;16.00;3.92;;;;;;;11.07;69.93;95780.97;5027267;28;20052;-76
2022/05/28 06:33:28;;;;;;;12.30;3.78;;;;;;;11.16;68.09;95785.69;5040367;28;20049;-76
2022/05/28 06:35:58;;;;;;;11.15;4.35;;;;;;;11.18;68.44;95783.59;5033816;28;20387;-77
2022/05/28 06:38:25;;;;;;;13.98;3.35;;;;;;;11.34;69.13;95768.56;5034788;28;20069;-77
2022/05/28 06:40:51;;;;;;;13.55;3.17;;;;;;;11.46;69.11;95765.63;5025017;28;20065;-76
2022/05/28 06:43:17;;;;;;;16.00;3.17;;;;;;;11.37;67.62;95768.03;5025988;28;20384;-74
2022/05/28 06:45:42;;;;;;;16.73;3.20;;;;;;;11.45;68.00;95764.84;5028951;28;20128;-74
2022/05/28 06:48:08;;;;;;;13.73;3.20;;;;;;;11.44;66.99;95768.53;5030944;28;20049;-73
2022/05/28 06:53:19;;;;;;;12.68;3.75;;;;;;;11.35;67.89;95765.66;5020949;28;20044;-73
2022/05/28 06:55:44;;;;;;;24.63;3.50;;;;;;;11.44;67.86;95769.31;5027805;28;20041;-75
2022/05/28 06:58:10;;;;;;;28.63;4.80;;;;;;;11.59;68.36;95770.31;5031639;28;20045;-78
2022/05/28 07:00:36;;;;;;;12.65;3.42;;;;;;;11.34;67.42;95774.59;5029926;28;20072;-76
2022/05/28 07:03:03;;;;;;;12.70;3.55;;;;;;;11.39;67.03;95771.16;5034688;28;20099;-78
2022/05/28 07:05:29;;;;;;;14.13;3.50;;;;;;;11.37;68.00;95768.03;5030321;28;20060;-77
2022/05/28 07:07:55;;;;;;;15.00;3.20;;;;;;;11.50;68.59;95771.94;5032876;28;20091;-79
2022/05/28 07:10:21;;;;;;;12.50;3.13;;;;;;;11.59;67.33;95765.84;5024404;28;20107;-78
2022/05/28 07:12:47;;;;;;;16.20;3.78;;;;;;;11.66;69.54;95780.59;5027145;28;20616;-77
2022/05/28 07:15:13;;;;;;;13.65;3.67;;;;;;;11.79;68.17;95786.06;5033669;28;20135;-81
2022/05/28 07:17:42;;;;;;;11.60;3.40;;;;;;;11.88;67.92;95783.66;5031501;28;20491;-79
2022/05/28 07:20:09;;;;;;;14.45;3.85;;;;;;;11.93;68.87;95785.50;5032799;28;20037;-82
2022/05/28 07:22:35;;;;;;;16.02;4.03;;;;;;;11.88;67.96;95783.66;5031285;28;20087;-80
2022/05/28 07:25:01;;;;;;;15.32;3.78;;;;;;;11.90;67.93;95773.63;5031187;28;20041;-78
2022/05/28 07:27:27;;;;;;;15.20;3.78;;;;;;;12.08;67.97;95774.09;5025878;28;20041;-82
2022/05/28 07:29:56;;;;;;;11.48;3.47;;;;;;;12.07;67.33;95770.69;5030938;28;20095;-80
2022/05/28 07:32:25;;;;;;;16.40;3.65;;;;;;;12.08;66.60;95771.44;5023462;28;20083;-81
2022/05/28 07:34:51;;;;;;;10.93;3.63;;;;;;;12.13;66.87;95768.81;5031618;28;20041;-77
2022/05/28 07:37:17;;;;;;;12.93;4.20;;;;;;;11.91;68.09;95761.22;5030707;28;20095;-77
2022/05/28 07:39:43;;;;;;;14.52;4.28;;;;;;;12.04;67.34;95773.06;5023633;28;20451;-76
2022/05/28 07:42:08;;;;;;;11.63;4.35;;;;;;;12.07;68.95;95764.63;5026695;28;20048;-74
2022/05/28 07:44:34;;;;;;;18.27;4.30;;;;;;;12.04;68.64;95765.13;5036057;28;20495;-76
2022/05/28 07:47:04;;;;;;;14.82;4.38;;;;;;;11.76;65.68;95775.28;5030219;28;20091;-75
2022/05/28 07:49:29;;;;;;;16.73;4.38;;;;;;;11.71;67.17;95783.19;5032675;28;20473;-78
2022/05/28 07:51:55;;;;;;;15.27;4.70;;;;;;;11.94;66.29;95772.06;5030186;28;20042;-77
2022/05/28 07:54:20;;;;;;;14.10;4.03;;;;;;;12.34;69.00;95766.03;5033169;28;20037;-83
2022/05/28 07:56:46;;;;;;;15.07;4.35;;;;;;;12.21;65.53;95760.31;5027795;28;20051;-84
2022/05/28 07:59:11;;;;;;;13.43;3.78;;;;;;;12.03;67.22;95768.88;5024710;28;20037;-78
2022/05/28 08:01:39;;;;;;;12.13;4.20;;;;;;;12.07;67.90;95765.41;5030072;28;20045;-78
2022/05/28 08:04:05;;;;;;;13.73;4.32;;;;;;;11.90;67.10;95776.25;5031296;28;20049;-82
2022/05/28 08:06:33;;;;;;;12.82;3.80;;;;;;;11.84;65.60;95772.06;5028785;28;20040;-81
2022/05/28 08:09:00;;;;;;;13.15;3.97;;;;;;;11.78;66.95;95758.13;5032252;28;20041;-82
2022/05/28 08:11:26;;;;;;;12.52;3.63;;;;;;;11.85;67.33;95763.13;5026974;28;20041;-78
2022/05/28 08:13:52;;;;;;;10.90;3.50;;;;;;;12.10;66.03;95766.72;5032428;28;20431;-79
2022/05/28 08:16:19;;;;;;;10.75;3.85;;;;;;;12.33;63.49;95778.44;5030869;28;20037;-78
2022/05/28 08:18:45;;;;;;;10.15;3.40;;;;;;;12.33;64.82;95767.91;5026432;28;20049;-80
2022/05/28 08:23:56;;;;;;;;;;;;;;;12.30;61.48;95779.00;5034087;28;20042;-80
2022/05/28 08:26:21;;;;;;;9.65;3.03;;;;;;;12.29;58.10;95778.19;5033395;28;19932;-79
2022/05/28 08:28:49;;;;;;;10.18;2.80;;;;;;;12.37;56.26;95783.94;5030876;28;20046;-81
2022/05/28 08:31:15;;;;;;;9.77;2.80;;;;;;;12.10;56.78;95774.63;5030526;28;20041;-79
2022/05/28 08:33:41;;;;;;;11.90;2.80;;;;;;;12.18;58.19;95765.34;5033165;28;20033;-80
2022/05/28 08:36:08;;;;;;;13.27;3.10;;;;;;;12.30;58.20;95774.50;5027780;28;20044;-79
2022/05/28 08:38:34;;;;;;;11.52;3.13;;;;;;;12.14;58.33;95765.13;5033719;28;20052;-80
2022/05/28 08:41:05;;;;;;;9.38;2.40;;;;;;;12.20;59.28;95768.50;5032237;28;20077;-80
2022/05/28 08:43:36;;;;;;;12.50;2.58;;;;;;;12.28;56.80;95771.34;5032817;28;20045;-80
2022/05/28 08:46:03;;;;;;;10.35;3.08;;;;;;;12.30;57.49;95779.78;5034336;28;20072;-81
2022/05/28 08:48:40;;;;;;;10.50;2.28;;;;;;;12.19;58.11;95772.97;5031819;28;20048;-81
2022/05/28 08:51:11;;;;;;;10.30;3.58;;;;;;;12.26;57.84;95768.19;5022986;28;20037;-79
2022/05/28 08:53:47;;;;;;;12.55;2.70;;;;;;;12.21;57.19;95768.25;5029554;28;20053;-79
2022/05/28 08:56:16;;;;;;;9.40;2.53;;;;;;;12.41;58.56;95759.41;5031886;28;20042;-80
2022/05/28 08:58:45;;;;;;;7.47;2.67;;;;;;;12.60;58.03;95766.66;5027005;28;20072;-80
2022/05/28 09:01:17;;;;;;;8.57;2.35;;;;;;;12.63;55.56;95782.72;5032215;28;20469;-80
2022/05/28 09:03:48;;;;;;;5.07;2.00;;;;;;;12.67;55.71;95776.91;5033099;28;20053;-80
2022/05/28 09:06:18;;;;;;;11.05;2.60;;;;;;;12.71;55.90;95777.94;5030349;28;20052;-80
2022/05/28 09:08:48;;;;;;;10.52;2.50;;;;;;;12.74;57.11;95774.72;5023229;28;20041;-79
2022/05/28 09:11:31;;;;;;;10.13;2.55;;;;;;;12.89;56.55;95771.19;5027583;28;20064;-79
2022/05/28 09:14:03;;;;;;;9.45;2.30;;;;;;;12.60;53.58;95778.00;5026454;28;20038;-79
2022/05/28 09:16:32;;;;;;;7.40;2.00;;;;;;;12.61;52.69;95779.59;5028014;28;20100;-79
2022/05/28 09:19:08;;;;;;;6.35;2.00;;;;;;;12.71;50.03;95783.22;5026513;28;20525;-79
2022/05/28 09:21:34;;;;;;;9.75;2.05;;;;;;;12.85;50.58;95762.25;5026192;28;20041;-80
2022/05/28 09:24:09;;;;;;;7.78;1.80;;;;;;;13.02;51.56;95767.13;5027995;28;20414;-81
2022/05/28 09:26:47;;;;;;;5.40;1.92;;;;;;;12.90;51.49;95776.19;5031573;28;20113;-79
2022/05/28 09:29:17;;;;;;;6.75;1.60;;;;;;;13.05;53.00;95766.56;5030232;28;20037;-77
2022/05/28 09:32:03;;;;;;;4.82;1.70;;;;;;;13.00;51.95;95765.53;5027585;28;20506;-78
2022/05/28 09:34:49;;;;;;;9.05;1.80;;;;;;;12.99;51.27;95763.94;5031299;28;20048;-76
2022/05/28 09:37:36;;;;;;;8.13;2.05;;;;;;;13.12;50.86;95762.50;5030101;28;20037;-74
2022/05/28 09:40:07;;;;;;;2.50;1.40;;;;;;;13.29;47.94;95762.09;5028241;28;20127;-73
2022/05/28 09:43:17;;;;;;;7.57;1.70;;;;;;;13.45;47.34;95759.31;5016528;28;20052;-73
2022/05/28 09:46:20;;;;;;;4.85;1.50;;;;;;;13.29;47.44;95767.38;5028773;28;20057;-73
2022/05/28 09:48:47;;;;;;;2.17;1.13;;;;;;;13.58;49.22;95766.56;5026667;28;20041;-73
2022/05/28 09:51:23;;;;;;;4.40;1.25;;;;;;;13.56;48.76;95759.97;5029921;28;20038;-73
2022/05/28 09:54:16;;;;;;;8.95;1.80;;;;;;;13.40;49.38;95767.28;5023432;28;20160;-72
2022/05/28 09:56:46;;;;;;;6.47;1.80;;;;;;;13.54;48.57;95762.91;5028711;28;20037;-73
2022/05/28 09:59:27;;;;;;;4.85;1.65;;;;;;;13.63;49.17;95761.25;5023802;28;20041;-76
2022/05/28 10:02:16;;;;;;;6.93;2.20;;;;;;;13.80;48.71;95766.03;5028459;28;20041;-76
2022/05/28 10:04:48;;;;;;;6.65;1.52;;;;;;;13.43;50.23;95749.03;5028969;28;20487;-72
2022/05/28 10:07:14;;;;;;;3.88;1.60;;;;;;;13.72;48.03;95750.00;5029031;28;20049;-72
2022/05/28 10:09:53;;;;;;;8.55;2.33;;;;;;;14.27;50.33;95747.72;5028558;28;20033;-72
2022/05/28 10:12:30;;;;;;;5.22;1.60;;;;;;;14.59;48.23;95743.53;5036606;28;20049;-73
2022/05/28 10:15:11;;;;;;;6.57;1.50;;;;;;;14.28;47.14;95749.28;5034802;28;20037;-72
2022/05/28 10:17:37;;;;;;;4.55;1.60;;;;;;;14.44;49.36;95751.69;5028603;28;20042;-72
2022/05/28 10:20:15;;;;;;;5.18;1.40;;;;;;;14.75;49.47;95745.97;5027838;28;20266;-72
2022/05/28 10:22:41;;;;;;;4.70;2.00;;;;;;;14.75;48.51;95740.66;5031236;28;20429;-73
2022/05/28 10:25:41;;;;;;;4.60;1.70;;;;;;;15.19;46.85;95734.09;5032732;28;20049;-72
2022/05/28 10:28:09;;;;;;;5.80;1.67;;;;;;;14.92;47.92;95735.59;5017968;28;20033;-73
2022/05/28 10:30:37;;;;;;;4.60;1.60;;;;;;;15.35;47.38;95742.56;5027122;28;20098;-79
2022/05/28 10:33:12;;;;;;;4.40;1.83;;;;;;;15.05;45.43;95740.13;5033342;28;20069;-75
2022/05/28 10:35:38;;;;;;;3.15;1.55;;;;;;;15.31;45.01;95737.03;5031788;28;20037;-76
2022/05/28 10:38:17;;;;;;;5.25;1.60;;;;;;;16.38;45.50;95735.94;5030273;28;20038;-75
2022/05/28 10:40:48;;;;;;;5.32;1.50;;;;;;;16.29;44.74;95748.34;5034791;28;20033;-75
2022/05/28 10:43:27;;;;;;;5.35;1.65;;;;;;;15.90;44.24;95725.84;5033869;28;20050;-75
2022/05/28 10:46:03;;;;;;;5.22;2.08;;;;;;;15.47;45.43;95723.50;5034026;28;20045;-78
2022/05/28 10:48:43;;;;;;;4.35;1.70;;;;;;;16.58;45.18;95733.91;5026771;28;20065;-78
2022/05/28 10:51:51;;;;;;;9.43;2.00;;;;;;;17.40;42.50;95729.22;5028500;28;20045;-77
2022/05/28 10:54:29;;;;;;;4.80;1.73;;;;;;;17.39;43.85;95729.53;5008746;28;20116;-75
2022/05/28 10:57:22;;;;;;;5.97;1.80;;;;;;;16.36;42.38;95727.47;5024173;28;20099;-76
2022/05/28 11:00:04;;;;;;;4.70;1.75;;;;;;;17.14;43.92;95732.53;5031635;28;20052;-73
2022/05/28 11:02:53;;;;;;;6.50;1.80;;;;;;;17.22;41.07;95730.22;5028552;28;20034;-78
2022/05/28 11:05:57;;;;;;;6.55;1.80;;;;;;;16.62;41.20;95708.28;5033280;28;20049;-76
2022/05/28 11:08:34;;;;;;;6.20;1.60;;;;;;;17.04;40.85;95714.19;5029230;28;20132;-77
2022/05/28 11:11:24;;;;;;;3.58;1.73;;;;;;;16.91;41.51;95712.41;5025223;28;20041;-76
2022/05/28 11:14:17;;;;;;;4.43;1.70;;;;;;;18.20;40.83;95708.88;5027655;28;20487;-76
2022/05/28 11:17:01;;;;;;;4.20;1.60;;;;;;;17.93;42.47;95710.75;5026734;28;20049;-76
2022/05/28 11:19:47;;;;;;;3.30;1.90;;;;;;;17.27;41.13;95711.50;5028314;28;20044;-75
2022/05/28 11:22:42;;;;;;;6.05;1.70;;;;;;;16.71;43.28;95701.19;5030488;28;20415;-77
2022/05/28 11:25:19;;;;;;;;;;;;;;;18.42;41.77;95698.06;5030002;28;20045;-76
2022/05/28 11:28:03;;;;;;;3.78;1.70;;;;;;;17.84;40.83;95679.56;5029992;28;19921;-75
2022/05/28 11:30:37;;;;;;;4.75;1.70;;;;;;;17.97;41.01;95680.53;5029489;28;20049;-74
2022/05/28 11:33:32;;;;;;;5.43;1.98;;;;;;;18.62;40.80;95682.50;5031327;28;20041;-75
2022/05/28 11:36:12;;;;;;;5.07;1.77;;;;;;;19.48;39.34;95680.69;5030432;28;20061;-75
2022/05/28 11:38:41;;;;;;;7.32;2.65;;;;;;;19.83;37.00;95683.19;5029490;28;20065;-76
2022/05/28 11:41:18;;;;;;;6.03;2.00;;;;;;;20.03;36.40;95672.84;5030004;28;20041;-72
2022/05/28 11:44:05;;;;;;;4.93;1.75;;;;;;;19.94;35.69;95674.78;5027138;28;20049;-78
2022/05/28 11:46:43;;;;;;;5.30;1.80;;;;;;;19.60;35.06;95672.00;5036650;28;20038;-78
2022/05/28 11:52:37;;;;;;;6.90;1.75;;;;;;;19.58;35.22;95666.19;5028321;28;20105;-75